sensor_id;sensor_type;location;lat;lon;timestamp;pressure;altitude;pressure_sealevel;temperature;humidity
34979;BME280;21185;50.978;13.720;2023-02-28T00:04:06;99515.84;;;1.22;72.70
34979;BME280;21185;50.978;13.720;2023-02-28T00:09:10;99519.00;;;1.27;72.67
34979;BME280;21185;50.978;13.720;2023-02-28T00:14:12;99521.34;;;1.32;72.59
34979;BME280;21185;50.978;13.720;2023-02-28T00:19:14;99516.16;;;1.34;72.58
34979;BME280;21185;50.978;13.720;2023-02-28T00:24:16;99510.13;;;1.35;72.46
34979;BME280;21185;50.978;13.720;2023-02-28T00:29:18;99508.47;;;1.34;72.42
34979;BME280;21185;50.978;13.720;2023-02-28T00:34:20;99509.47;;;1.31;72.33
34979;BME280;21185;50.978;13.720;2023-02-28T00:39:22;99507.88;;;1.28;72.45
34979;BME280;21185;50.978;13.720;2023-02-28T00:44:24;99507.88;;;1.28;72.53
34979;BME280;21185;50.978;13.720;2023-02-28T00:49:28;99509.53;;;1.29;72.44
34979;BME280;21185;50.978;13.720;2023-02-28T00:54:29;99507.03;;;1.28;72.32
34979;BME280;21185;50.978;13.720;2023-02-28T00:59:31;99506.44;;;1.23;72.52
34979;BME280;21185;50.978;13.720;2023-02-28T01:04:35;99505.84;;;1.18;72.62
34979;BME280;21185;50.978;13.720;2023-02-28T01:09:37;99506.94;;;1.12;72.74
34979;BME280;21185;50.978;13.720;2023-02-28T01:14:38;99503.03;;;1.05;72.82
34979;BME280;21185;50.978;13.720;2023-02-28T01:19:40;99498.13;;;1.01;72.64
34979;BME280;21185;50.978;13.720;2023-02-28T01:24:44;99496.69;;;0.95;72.76
34979;BME280;21185;50.978;13.720;2023-02-28T01:29:50;99498.63;;;0.90;72.69
34979;BME280;21185;50.978;13.720;2023-02-28T01:34:53;99498.03;;;0.85;72.61
34979;BME280;21185;50.978;13.720;2023-02-28T01:39:57;99487.81;;;0.85;72.73
34979;BME280;21185;50.978;13.720;2023-02-28T01:50:09;99492.28;;;0.80;72.64
34979;BME280;21185;50.978;13.720;2023-02-28T01:55:16;99489.94;;;0.75;72.63
34979;BME280;21185;50.978;13.720;2023-02-28T02:00:22;99480.72;;;0.73;72.54
34979;BME280;21185;50.978;13.720;2023-02-28T02:05:28;99490.16;;;0.71;72.54
34979;BME280;21185;50.978;13.720;2023-02-28T02:10:35;99480.84;;;0.70;72.60
34979;BME280;21185;50.978;13.720;2023-02-28T02:31:38;99472.06;;;0.75;72.56
34979;BME280;21185;50.978;13.720;2023-02-28T02:41:56;99477.25;;;0.74;72.50
34979;BME280;21185;50.978;13.720;2023-02-28T02:47:12;99477.25;;;0.74;72.61
34979;BME280;21185;50.978;13.720;2023-02-28T02:52:18;99483.13;;;0.76;72.54
34979;BME280;21185;50.978;13.720;2023-02-28T02:57:27;99478.91;;;0.75;72.49
34979;BME280;21185;50.978;13.720;2023-02-28T03:02:33;99483.19;;;0.74;72.49
34979;BME280;21185;50.978;13.720;2023-02-28T03:07:36;99484.22;;;0.70;72.50
34979;BME280;21185;50.978;13.720;2023-02-28T03:12:50;99486.94;;;0.67;72.72
34979;BME280;21185;50.978;13.720;2023-02-28T03:18:08;99487.91;;;0.64;72.56
34979;BME280;21185;50.978;13.720;2023-02-28T03:23:23;99484.72;;;0.59;72.80
34979;BME280;21185;50.978;13.720;2023-02-28T03:29:01;99475.47;;;0.57;72.87
34979;BME280;21185;50.978;13.720;2023-02-28T03:34:12;99472.22;;;0.53;72.68
34979;BME280;21185;50.978;13.720;2023-02-28T03:39:23;99471.53;;;0.50;72.73
34979;BME280;21185;50.978;13.720;2023-02-28T03:44:37;99477.63;;;0.47;72.71
34979;BME280;21185;50.978;13.720;2023-02-28T03:49:48;99480.31;;;0.44;72.78
34979;BME280;21185;50.978;13.720;2023-02-28T03:54:55;99485.56;;;0.41;72.61
34979;BME280;21185;50.978;13.720;2023-02-28T04:00:20;99489.75;;;0.42;72.51
34979;BME280;21185;50.978;13.720;2023-02-28T04:05:23;99494.88;;;0.42;72.51
34979;BME280;21185;50.978;13.720;2023-02-28T04:10:25;99490.53;;;0.44;72.38
34979;BME280;21185;50.978;13.720;2023-02-28T04:15:27;99493.84;;;0.46;72.34
34979;BME280;21185;50.978;13.720;2023-02-28T04:20:29;99502.41;;;0.45;72.29
34979;BME280;21185;50.978;13.720;2023-02-28T04:25:31;99501.56;;;0.45;72.25
34979;BME280;21185;50.978;13.720;2023-02-28T04:30:33;99506.69;;;0.45;72.23
34979;BME280;21185;50.978;13.720;2023-02-28T04:35:35;99506.88;;;0.40;71.94
34979;BME280;21185;50.978;13.720;2023-02-28T04:40:37;99501.97;;;0.36;71.90
34979;BME280;21185;50.978;13.720;2023-02-28T04:45:39;99505.56;;;0.31;72.02
34979;BME280;21185;50.978;13.720;2023-02-28T04:50:41;99512.59;;;0.26;71.81
34979;BME280;21185;50.978;13.720;2023-02-28T04:55:43;99516.31;;;0.19;71.87
34979;BME280;21185;50.978;13.720;2023-02-28T05:00:45;99514.09;;;0.12;71.85
34979;BME280;21185;50.978;13.720;2023-02-28T05:05:47;99513.47;;;0.07;71.66
34979;BME280;21185;50.978;13.720;2023-02-28T05:10:49;99517.94;;;0.02;71.77
34979;BME280;21185;50.978;13.720;2023-02-28T05:15:51;99523.25;;;-0.03;71.60
34979;BME280;21185;50.978;13.720;2023-02-28T05:20:53;99535.38;;;-0.08;71.63
34979;BME280;21185;50.978;13.720;2023-02-28T05:25:55;99517.72;;;-0.13;71.40
34979;BME280;21185;50.978;13.720;2023-02-28T05:30:57;99523.84;;;-0.17;71.59
34979;BME280;21185;50.978;13.720;2023-02-28T05:35:59;99527.44;;;-0.21;71.40
34979;BME280;21185;50.978;13.720;2023-02-28T05:41:08;99530.88;;;-0.22;71.37
34979;BME280;21185;50.978;13.720;2023-02-28T05:46:11;99529.28;;;-0.24;71.35
34979;BME280;21185;50.978;13.720;2023-02-28T05:51:14;99531.13;;;-0.28;71.24
34979;BME280;21185;50.978;13.720;2023-02-28T05:56:16;99532.97;;;-0.31;71.37
34979;BME280;21185;50.978;13.720;2023-02-28T06:01:39;99531.38;;;-0.34;71.32
34979;BME280;21185;50.978;13.720;2023-02-28T06:06:41;99539.91;;;-0.35;71.37
34979;BME280;21185;50.978;13.720;2023-02-28T06:11:43;99542.53;;;-0.37;71.27
34979;BME280;21185;50.978;13.720;2023-02-28T06:16:45;99546.69;;;-0.34;71.28
34979;BME280;21185;50.978;13.720;2023-02-28T06:21:50;99544.06;;;-0.32;71.15
34979;BME280;21185;50.978;13.720;2023-02-28T06:26:53;99551.59;;;-0.29;71.30
34979;BME280;21185;50.978;13.720;2023-02-28T06:31:55;99563.38;;;-0.27;71.27
34979;BME280;21185;50.978;13.720;2023-02-28T06:36:57;99572.50;;;-0.21;71.35
34979;BME280;21185;50.978;13.720;2023-02-28T06:42:03;99581.56;;;-0.14;71.69
34979;BME280;21185;50.978;13.720;2023-02-28T06:47:05;99588.06;;;-0.07;71.43
34979;BME280;21185;50.978;13.720;2023-02-28T06:52:08;99588.56;;;0.01;71.47
34979;BME280;21185;50.978;13.720;2023-02-28T06:57:11;99595.00;;;0.10;71.54
34979;BME280;21185;50.978;13.720;2023-02-28T07:02:13;99592.13;;;0.17;71.64
34979;BME280;21185;50.978;13.720;2023-02-28T07:07:15;99598.56;;;0.26;71.88
34979;BME280;21185;50.978;13.720;2023-02-28T07:12:17;99598.25;;;0.33;71.96
34979;BME280;21185;50.978;13.720;2023-02-28T07:17:19;99607.69;;;0.31;71.86
34979;BME280;21185;50.978;13.720;2023-02-28T07:22:21;99609.16;;;0.37;72.12
34979;BME280;21185;50.978;13.720;2023-02-28T07:27:23;99607.84;;;0.47;72.26
34979;BME280;21185;50.978;13.720;2023-02-28T07:32:27;99613.97;;;0.63;72.31
34979;BME280;21185;50.978;13.720;2023-02-28T07:37:29;99603.59;;;0.67;72.35
34979;BME280;21185;50.978;13.720;2023-02-28T07:42:33;99611.28;;;0.67;72.35
34979;BME280;21185;50.978;13.720;2023-02-28T07:47:38;99612.16;;;0.65;72.35
34979;BME280;21185;50.978;13.720;2023-02-28T07:52:41;99610.31;;;0.69;72.42
34979;BME280;21185;50.978;13.720;2023-02-28T07:57:43;99616.19;;;0.71;72.53
34979;BME280;21185;50.978;13.720;2023-02-28T08:02:45;99615.91;;;0.77;72.35
34979;BME280;21185;50.978;13.720;2023-02-28T08:07:51;99622.13;;;0.90;72.39
34979;BME280;21185;50.978;13.720;2023-02-28T08:12:53;99624.19;;;1.01;72.14
34979;BME280;21185;50.978;13.720;2023-02-28T08:17:54;99620.34;;;1.11;72.17
34979;BME280;21185;50.978;13.720;2023-02-28T08:22:57;99618.09;;;1.22;72.09
34979;BME280;21185;50.978;13.720;2023-02-28T08:27:59;99619.28;;;1.34;72.08
34979;BME280;21185;50.978;13.720;2023-02-28T08:33:01;99624.03;;;1.42;72.00
34979;BME280;21185;50.978;13.720;2023-02-28T08:38:03;99626.13;;;1.34;71.57
34979;BME280;21185;50.978;13.720;2023-02-28T08:43:05;99629.72;;;1.29;71.13
34979;BME280;21185;50.978;13.720;2023-02-28T08:48:07;99633.44;;;1.22;71.03
34979;BME280;21185;50.978;13.720;2023-02-28T08:53:09;99636.41;;;1.32;71.08
34979;BME280;21185;50.978;13.720;2023-02-28T08:58:11;99629.69;;;1.48;70.53
34979;BME280;21185;50.978;13.720;2023-02-28T09:03:13;99630.75;;;1.61;70.51
34979;BME280;21185;50.978;13.720;2023-02-28T09:08:14;99633.94;;;1.67;70.21
34979;BME280;21185;50.978;13.720;2023-02-28T09:13:17;99627.53;;;1.75;69.85
34979;BME280;21185;50.978;13.720;2023-02-28T09:18:19;99635.69;;;1.83;69.55
34979;BME280;21185;50.978;13.720;2023-02-28T09:23:21;99625.91;;;1.91;69.14
34979;BME280;21185;50.978;13.720;2023-02-28T09:28:24;99627.34;;;1.97;68.63
34979;BME280;21185;50.978;13.720;2023-02-28T09:33:26;99623.03;;;1.98;68.25
34979;BME280;21185;50.978;13.720;2023-02-28T09:38:28;99624.69;;;1.99;67.74
34979;BME280;21185;50.978;13.720;2023-02-28T09:43:36;99615.81;;;2.06;67.55
34979;BME280;21185;50.978;13.720;2023-02-28T09:48:44;99614.84;;;2.08;67.04
34979;BME280;21185;50.978;13.720;2023-02-28T09:53:47;99622.97;;;2.16;66.97
34979;BME280;21185;50.978;13.720;2023-02-28T09:59:04;99617.47;;;2.24;66.40
34979;BME280;21185;50.978;13.720;2023-02-28T10:09:27;99618.41;;;2.39;65.94
34979;BME280;21185;50.978;13.720;2023-02-28T10:14:33;99610.84;;;2.53;66.01
34979;BME280;21185;50.978;13.720;2023-02-28T10:24:46;99617.94;;;2.81;65.13
34979;BME280;21185;50.978;13.720;2023-02-28T10:29:50;99617.22;;;2.95;64.85
34979;BME280;21185;50.978;13.720;2023-02-28T10:35:20;99617.25;;;2.77;64.37
34979;BME280;21185;50.978;13.720;2023-02-28T10:45:26;99620.31;;;2.35;64.32
34979;BME280;21185;50.978;13.720;2023-02-28T10:50:43;99612.50;;;2.21;64.34
34979;BME280;21185;50.978;13.720;2023-02-28T10:56:00;99619.19;;;2.23;64.32
34979;BME280;21185;50.978;13.720;2023-02-28T11:01:02;99605.69;;;2.37;64.43
34979;BME280;21185;50.978;13.720;2023-02-28T11:06:15;99599.03;;;2.50;64.02
34979;BME280;21185;50.978;13.720;2023-02-28T11:11:18;99599.66;;;2.71;63.72
34979;BME280;21185;50.978;13.720;2023-02-28T11:16:21;99599.00;;;2.83;63.66
34979;BME280;21185;50.978;13.720;2023-02-28T11:21:30;99589.66;;;2.98;63.80
34979;BME280;21185;50.978;13.720;2023-02-28T11:26:41;99587.94;;;2.99;63.72
34979;BME280;21185;50.978;13.720;2023-02-28T11:31:44;99582.78;;;2.83;63.63
34979;BME280;21185;50.978;13.720;2023-02-28T11:37:00;99581.63;;;2.73;63.53
34979;BME280;21185;50.978;13.720;2023-02-28T11:42:38;99578.06;;;2.75;63.65
34979;BME280;21185;50.978;13.720;2023-02-28T11:53:05;99564.94;;;2.81;63.40
34979;BME280;21185;50.978;13.720;2023-02-28T11:58:32;99563.78;;;2.87;63.57
34979;BME280;21185;50.978;13.720;2023-02-28T12:09:20;99545.59;;;2.91;63.31
34979;BME280;21185;50.978;13.720;2023-02-28T12:20:21;99554.59;;;2.83;63.19
34979;BME280;21185;50.978;13.720;2023-02-28T12:25:35;99552.63;;;2.88;63.19
34979;BME280;21185;50.978;13.720;2023-02-28T12:31:21;99548.97;;;2.92;62.89
34979;BME280;21185;50.978;13.720;2023-02-28T12:36:25;99555.25;;;2.86;63.01
34979;BME280;21185;50.978;13.720;2023-02-28T12:41:53;99542.59;;;2.83;62.88
34979;BME280;21185;50.978;13.720;2023-02-28T12:47:01;99540.78;;;2.85;62.63
34979;BME280;21185;50.978;13.720;2023-02-28T12:52:06;99539.53;;;2.92;62.98
34979;BME280;21185;50.978;13.720;2023-02-28T12:57:33;99538.47;;;2.97;62.67
34979;BME280;21185;50.978;13.720;2023-02-28T13:13:06;99531.34;;;2.86;62.54
34979;BME280;21185;50.978;13.720;2023-02-28T13:18:36;99534.91;;;2.83;62.32
34979;BME280;21185;50.978;13.720;2023-02-28T13:23:58;99532.75;;;2.76;62.20
34979;BME280;21185;50.978;13.720;2023-02-28T13:29:48;99530.03;;;2.79;62.62
34979;BME280;21185;50.978;13.720;2023-02-28T13:34:26;99532.59;;;2.79;62.47
34979;BME280;21185;50.978;13.720;2023-02-28T14:01:02;99512.84;;;2.81;62.25
34979;BME280;21185;50.978;13.720;2023-02-28T14:06:29;99511.44;;;2.75;62.35
34979;BME280;21185;50.978;13.720;2023-02-28T14:11:36;99514.75;;;2.77;62.60
34979;BME280;21185;50.978;13.720;2023-02-28T14:16:43;99507.97;;;2.76;62.39
34979;BME280;21185;50.978;13.720;2023-02-28T14:32:33;99496.72;;;2.79;62.42
34979;BME280;21185;50.978;13.720;2023-02-28T14:37:39;99486.47;;;2.79;62.63
34979;BME280;21185;50.978;13.720;2023-02-28T14:42:54;99486.47;;;2.79;62.58
34979;BME280;21185;50.978;13.720;2023-02-28T14:48:01;99483.91;;;2.79;62.66
34979;BME280;21185;50.978;13.720;2023-02-28T14:53:06;99487.63;;;2.73;62.45
34979;BME280;21185;50.978;13.720;2023-02-28T15:03:30;99487.69;;;2.72;62.70
34979;BME280;21185;50.978;13.720;2023-02-28T15:08:33;99493.91;;;2.68;62.71
34979;BME280;21185;50.978;13.720;2023-02-28T15:18:49;99500.44;;;2.57;62.80
34979;BME280;21185;50.978;13.720;2023-02-28T15:24:02;99497.44;;;2.49;63.00
34979;BME280;21185;50.978;13.720;2023-02-28T15:29:12;99498.59;;;2.44;62.82
34979;BME280;21185;50.978;13.720;2023-02-28T15:34:27;99497.13;;;2.40;62.78
34979;BME280;21185;50.978;13.720;2023-02-28T15:39:43;99498.19;;;2.36;62.89
34979;BME280;21185;50.978;13.720;2023-02-28T15:44:46;99499.34;;;2.30;62.85
34979;BME280;21185;50.978;13.720;2023-02-28T15:49:54;99506.44;;;2.25;62.85
34979;BME280;21185;50.978;13.720;2023-02-28T15:55:08;99509.97;;;2.22;62.84
34979;BME280;21185;50.978;13.720;2023-02-28T16:00:18;99502.53;;;2.18;63.00
34979;BME280;21185;50.978;13.720;2023-02-28T16:05:30;99512.78;;;2.18;62.99
34979;BME280;21185;50.978;13.720;2023-02-28T16:10:33;99511.19;;;2.15;63.09
34979;BME280;21185;50.978;13.720;2023-02-28T16:15:38;99502.84;;;2.12;63.04
34979;BME280;21185;50.978;13.720;2023-02-28T16:20:43;99509.78;;;2.10;63.19
34979;BME280;21185;50.978;13.720;2023-02-28T16:25:46;99508.19;;;2.07;63.43
34979;BME280;21185;50.978;13.720;2023-02-28T16:30:51;99501.34;;;2.08;63.20
34979;BME280;21185;50.978;13.720;2023-02-28T16:35:53;99509.03;;;2.08;63.59
34979;BME280;21185;50.978;13.720;2023-02-28T16:40:58;99511.59;;;2.08;63.53
34979;BME280;21185;50.978;13.720;2023-02-28T16:46:01;99507.38;;;2.07;63.46
34979;BME280;21185;50.978;13.720;2023-02-28T16:51:05;99510.25;;;2.01;63.65
34979;BME280;21185;50.978;13.720;2023-02-28T16:56:15;99508.81;;;1.95;63.74
34979;BME280;21185;50.978;13.720;2023-02-28T17:01:18;99508.31;;;1.88;63.75
34979;BME280;21185;50.978;13.720;2023-02-28T17:06:26;99520.50;;;1.83;63.86
34979;BME280;21185;50.978;13.720;2023-02-28T17:11:30;99517.34;;;1.78;64.11
34979;BME280;21185;50.978;13.720;2023-02-28T17:16:33;99524.34;;;1.75;64.06
34979;BME280;21185;50.978;13.720;2023-02-28T17:21:38;99520.38;;;1.69;64.29
34979;BME280;21185;50.978;13.720;2023-02-28T17:26:42;99524.81;;;1.66;64.37
34979;BME280;21185;50.978;13.720;2023-02-28T17:31:44;99520.75;;;1.61;64.44
34979;BME280;21185;50.978;13.720;2023-02-28T17:36:48;99524.28;;;1.59;64.60
34979;BME280;21185;50.978;13.720;2023-02-28T17:41:51;99525.34;;;1.55;64.71
34979;BME280;21185;50.978;13.720;2023-02-28T17:46:54;99524.59;;;1.53;65.13
34979;BME280;21185;50.978;13.720;2023-02-28T17:51:57;99523.84;;;1.51;64.92
34979;BME280;21185;50.978;13.720;2023-02-28T17:56:59;99512.84;;;1.49;64.92
34979;BME280;21185;50.978;13.720;2023-02-28T18:02:02;99510.38;;;1.47;65.11
34979;BME280;21185;50.978;13.720;2023-02-28T18:07:07;99505.41;;;1.44;65.16
34979;BME280;21185;50.978;13.720;2023-02-28T18:12:10;99503.00;;;1.41;65.15
34979;BME280;21185;50.978;13.720;2023-02-28T18:17:13;99501.41;;;1.39;65.25
34979;BME280;21185;50.978;13.720;2023-02-28T18:22:14;99506.59;;;1.37;65.38
34979;BME280;21185;50.978;13.720;2023-02-28T18:27:17;99517.88;;;1.33;65.51
34979;BME280;21185;50.978;13.720;2023-02-28T18:32:19;99511.25;;;1.29;65.37
34979;BME280;21185;50.978;13.720;2023-02-28T18:37:21;99503.66;;;1.27;65.59
34979;BME280;21185;50.978;13.720;2023-02-28T18:42:23;99507.19;;;1.25;65.64
34979;BME280;21185;50.978;13.720;2023-02-28T18:47:26;99503.97;;;1.21;65.63
34979;BME280;21185;50.978;13.720;2023-02-28T18:52:28;99505.75;;;1.19;65.67
34979;BME280;21185;50.978;13.720;2023-02-28T18:57:30;99498.09;;;1.19;65.88
34979;BME280;21185;50.978;13.720;2023-02-28T19:02:32;99501.63;;;1.17;65.70
34979;BME280;21185;50.978;13.720;2023-02-28T19:07:34;99504.31;;;1.14;65.81
34979;BME280;21185;50.978;13.720;2023-02-28T19:12:37;99508.81;;;1.09;65.93
34979;BME280;21185;50.978;13.720;2023-02-28T19:17:39;99504.69;;;1.06;65.80
34979;BME280;21185;50.978;13.720;2023-02-28T19:22:42;99500.69;;;1.01;65.93
34979;BME280;21185;50.978;13.720;2023-02-28T19:27:45;99513.63;;;0.97;66.06
34979;BME280;21185;50.978;13.720;2023-02-28T19:32:47;99510.28;;;0.95;65.96
34979;BME280;21185;50.978;13.720;2023-02-28T19:37:49;99508.72;;;0.93;66.08
34979;BME280;21185;50.978;13.720;2023-02-28T19:42:53;99511.28;;;0.93;66.02
34979;BME280;21185;50.978;13.720;2023-02-28T19:47:55;99507.97;;;0.91;66.13
34979;BME280;21185;50.978;13.720;2023-02-28T19:52:57;99512.31;;;0.89;66.05
34979;BME280;21185;50.978;13.720;2023-02-28T19:58:01;99508.09;;;0.88;66.11
34979;BME280;21185;50.978;13.720;2023-02-28T20:03:03;99520.13;;;0.86;66.20
34979;BME280;21185;50.978;13.720;2023-02-28T20:08:05;99523.66;;;0.83;66.24
34979;BME280;21185;50.978;13.720;2023-02-28T20:13:08;99522.81;;;0.83;66.46
34979;BME280;21185;50.978;13.720;2023-02-28T20:18:10;99532.97;;;0.84;66.28
34979;BME280;21185;50.978;13.720;2023-02-28T20:23:12;99527.84;;;0.84;66.35
34979;BME280;21185;50.978;13.720;2023-02-28T20:28:14;99524.47;;;0.84;66.48
34979;BME280;21185;50.978;13.720;2023-02-28T20:33:17;99516.81;;;0.84;66.54
34979;BME280;21185;50.978;13.720;2023-02-28T20:38:19;99520.19;;;0.84;66.40
34979;BME280;21185;50.978;13.720;2023-02-28T20:43:21;99519.50;;;0.81;66.59
34979;BME280;21185;50.978;13.720;2023-02-28T20:48:24;99517.91;;;0.78;66.61
34979;BME280;21185;50.978;13.720;2023-02-28T20:53:26;99517.22;;;0.75;66.21
34979;BME280;21185;50.978;13.720;2023-02-28T20:58:31;99517.22;;;0.75;66.71
34979;BME280;21185;50.978;13.720;2023-02-28T21:03:35;99524.22;;;0.71;66.76
34979;BME280;21185;50.978;13.720;2023-02-28T21:08:37;99523.50;;;0.68;66.61
34979;BME280;21185;50.978;13.720;2023-02-28T21:13:40;99513.44;;;0.64;66.65
34979;BME280;21185;50.978;13.720;2023-02-28T21:18:43;99518.75;;;0.60;66.83
34979;BME280;21185;50.978;13.720;2023-02-28T21:23:48;99519.72;;;0.57;66.74
34979;BME280;21185;50.978;13.720;2023-02-28T21:28:53;99512.19;;;0.54;66.87
34979;BME280;21185;50.978;13.720;2023-02-28T21:33:57;99520.91;;;0.50;66.79
34979;BME280;21185;50.978;13.720;2023-02-28T21:39:15;99522.69;;;0.48;66.65
34979;BME280;21185;50.978;13.720;2023-02-28T21:44:18;99533.03;;;0.45;66.89
34979;BME280;21185;50.978;13.720;2023-02-28T21:49:20;99529.88;;;0.40;66.70
34979;BME280;21185;50.978;13.720;2023-02-28T21:54:25;99536.75;;;0.38;66.87
34979;BME280;21185;50.978;13.720;2023-02-28T21:59:27;99538.56;;;0.36;66.84
34979;BME280;21185;50.978;13.720;2023-02-28T22:04:28;99528.41;;;0.35;66.73
34979;BME280;21185;50.978;13.720;2023-02-28T22:09:31;99519.97;;;0.32;66.72
34979;BME280;21185;50.978;13.720;2023-02-28T22:14:33;99521.84;;;0.29;66.83
34979;BME280;21185;50.978;13.720;2023-02-28T22:19:35;99526.19;;;0.27;66.76
34979;BME280;21185;50.978;13.720;2023-02-28T22:24:37;99523.91;;;0.21;66.79
34979;BME280;21185;50.978;13.720;2023-02-28T22:29:39;99521.47;;;0.18;66.88
34979;BME280;21185;50.978;13.720;2023-02-28T22:34:41;99523.22;;;0.17;66.92
34979;BME280;21185;50.978;13.720;2023-02-28T22:39:42;99520.84;;;0.13;66.86
34979;BME280;21185;50.978;13.720;2023-02-28T22:44:49;99510.78;;;0.10;66.83
34979;BME280;21185;50.978;13.720;2023-02-28T22:49:51;99522.78;;;0.08;66.84
34979;BME280;21185;50.978;13.720;2023-02-28T22:54:53;99522.09;;;0.04;66.76
34979;BME280;21185;50.978;13.720;2023-02-28T22:59:55;99523.94;;;0.00;66.84
34979;BME280;21185;50.978;13.720;2023-02-28T23:04:56;99517.28;;;-0.02;66.93
34979;BME280;21185;50.978;13.720;2023-02-28T23:09:58;99525.00;;;-0.04;66.97
34979;BME280;21185;50.978;13.720;2023-02-28T23:15:00;99524.16;;;-0.04;67.08
34979;BME280;21185;50.978;13.720;2023-02-28T23:20:02;99525.88;;;-0.05;66.93
34979;BME280;21185;50.978;13.720;2023-02-28T23:25:04;99521.69;;;-0.06;66.97
34979;BME280;21185;50.978;13.720;2023-02-28T23:30:07;99525.25;;;-0.10;66.83
34979;BME280;21185;50.978;13.720;2023-02-28T23:35:11;99525.44;;;-0.14;66.90
34979;BME280;21185;50.978;13.720;2023-02-28T23:40:13;99523.84;;;-0.17;66.97
34979;BME280;21185;50.978;13.720;2023-02-28T23:45:16;99535.84;;;-0.19;67.01
34979;BME280;21185;50.978;13.720;2023-02-28T23:50:18;99535.97;;;-0.22;67.08
34979;BME280;21185;50.978;13.720;2023-02-28T23:55:20;99536.09;;;-0.25;66.92
